Aérodrome :
LOGIN :

S'inscrire | Disclaimer

   EN    FR    IT 

 










Légende :    VFR   VFR Marginal   IFR   IFR Intensif   IFR Très Intensif
Visi : 
Plafond : 
>= 8 km
>= 3000ft
5 à 8 km
1000 à 3000 ft
1500m à 5 km
500 à 1000 ft
800 à 1500m
200 à 500 ft
< 800m
< 200 ft
Symboles :   Orages  Brouillard  Fortes neiges  Fortes précipitations  Vent > 20 kt
SIGMETs :   Divers  Orages  Givrage  Turbulence  Onde Orograph.  Cendres Volcan.







- Altitude de l'aérodrome : 82 ft
- Code IATA : QIE
- Voir les cartes d'approche


LFMI - Istres

DERNIER METAR :
  • 210500Z AUTO 05003KT 6000 BKN016 02/02 Q1028 TEMPO 1500 BR

METARs EXPIRÉS :
  • 210430Z AUTO 05003KT 6000 FEW017 03/02 Q1028 TEMPO 1500 BR
  • 210400Z AUTO 06003KT 5000 BR NSC 03/02 Q1027 TEMPO 1500 BR
  • 210330Z AUTO 07005KT 5000 BR NSC 03/03 Q1027 TEMPO 1500 BR
  • 210300Z AUTO 07004KT 5000 BR NSC 04/04 Q1027 TEMPO 1500 BR
  • 210230Z AUTO 08006KT 5000 BR NSC 05/04 Q1027 TEMPO 1500 BR

TAF TAF LFMI
Valide du 21 à 03h jusqu'au 22 à 03h UTC


210200Z 2103/2203 VRB04KT CAVOK
TEMPO 2103/2109 1500 BR NSC
BECMG 2120/2121 BKN010
Pas de NOTAMs connus pour ce terrain.



MET'MAP, la Météo Aéronautique d'un coup d'oeil ! - Copyright ORBIFLY Décembre 2007 - Disclaimer

ORBIFLY MET'MAP TEAM :

Programmation & Développement : Alexandra Zaïnal
Conception & Développement : Baudouin d'Aumeries
Co-Programmation & Développement : Marc-Olivier Méhu
Soutien technique & logistique : Manuel Goepfert

Contact : metmap@orbifly.com




SOURCES & CREDITS :

   NOAA